sensor_id;sensor_type;location;lat;lon;timestamp;temperature;humidity
2174;DHT22;1093;51.424;11.764;2023-04-10T00:02:01;4.80;1.40
2174;DHT22;1093;51.424;11.764;2023-04-10T00:04:28;4.80;1.40
2174;DHT22;1093;51.424;11.764;2023-04-10T00:06:54;4.70;1.40
2174;DHT22;1093;51.424;11.764;2023-04-10T00:09:21;4.60;1.40
2174;DHT22;1093;51.424;11.764;2023-04-10T00:11:48;4.50;1.40
2174;DHT22;1093;51.424;11.764;2023-04-10T00:14:15;4.50;1.40
2174;DHT22;1093;51.424;11.764;2023-04-10T00:16:47;4.40;1.40
2174;DHT22;1093;51.424;11.764;2023-04-10T00:19:15;4.40;1.40
2174;DHT22;1093;51.424;11.764;2023-04-10T00:21:42;4.40;1.40
2174;DHT22;1093;51.424;11.764;2023-04-10T00:24:09;4.30;1.40
2174;DHT22;1093;51.424;11.764;2023-04-10T00:26:36;4.30;1.40
2174;DHT22;1093;51.424;11.764;2023-04-10T00:29:03;4.30;1.40
2174;DHT22;1093;51.424;11.764;2023-04-10T00:31:31;4.30;1.40
2174;DHT22;1093;51.424;11.764;2023-04-10T00:33:57;4.10;1.40
2174;DHT22;1093;51.424;11.764;2023-04-10T00:36:25;4.10;1.40
2174;DHT22;1093;51.424;11.764;2023-04-10T00:38:52;4.10;1.40
2174;DHT22;1093;51.424;11.764;2023-04-10T00:41:19;4.10;1.40
2174;DHT22;1093;51.424;11.764;2023-04-10T00:43:48;4.10;1.40
2174;DHT22;1093;51.424;11.764;2023-04-10T00:46:15;4.00;1.40
2174;DHT22;1093;51.424;11.764;2023-04-10T00:48:42;4.00;1.40
2174;DHT22;1093;51.424;11.764;2023-04-10T00:51:09;4.00;1.40
2174;DHT22;1093;51.424;11.764;2023-04-10T00:53:38;4.00;1.40
2174;DHT22;1093;51.424;11.764;2023-04-10T00:56:06;3.90;1.40
2174;DHT22;1093;51.424;11.764;2023-04-10T00:58:33;3.90;1.40
2174;DHT22;1093;51.424;11.764;2023-04-10T01:01:00;3.90;1.40
2174;DHT22;1093;51.424;11.764;2023-04-10T01:03:28;3.80;1.40
2174;DHT22;1093;51.424;11.764;2023-04-10T01:06:02;3.80;1.40
2174;DHT22;1093;51.424;11.764;2023-04-10T01:08:41;3.80;1.40
2174;DHT22;1093;51.424;11.764;2023-04-10T01:11:15;3.90;1.40
2174;DHT22;1093;51.424;11.764;2023-04-10T01:13:51;3.90;1.40
2174;DHT22;1093;51.424;11.764;2023-04-10T01:16:24;3.90;1.40
2174;DHT22;1093;51.424;11.764;2023-04-10T01:18:55;3.90;1.40
2174;DHT22;1093;51.424;11.764;2023-04-10T01:21:23;3.90;1.40
2174;DHT22;1093;51.424;11.764;2023-04-10T01:24:06;3.80;1.40
2174;DHT22;1093;51.424;11.764;2023-04-10T01:26:56;3.90;1.40
2174;DHT22;1093;51.424;11.764;2023-04-10T01:29:31;3.80;1.40
2174;DHT22;1093;51.424;11.764;2023-04-10T01:32:01;3.80;1.40
2174;DHT22;1093;51.424;11.764;2023-04-10T01:34:33;3.70;1.40
2174;DHT22;1093;51.424;11.764;2023-04-10T01:37:02;3.70;1.40
2174;DHT22;1093;51.424;11.764;2023-04-10T01:39:30;3.70;1.40
2174;DHT22;1093;51.424;11.764;2023-04-10T01:42:01;3.50;1.40
2174;DHT22;1093;51.424;11.764;2023-04-10T01:44:30;3.40;1.40
2174;DHT22;1093;51.424;11.764;2023-04-10T01:46:58;3.40;1.40
2174;DHT22;1093;51.424;11.764;2023-04-10T01:49:27;3.30;1.40
2174;DHT22;1093;51.424;11.764;2023-04-10T01:51:55;3.30;1.40
2174;DHT22;1093;51.424;11.764;2023-04-10T01:54:25;3.40;1.40
2174;DHT22;1093;51.424;11.764;2023-04-10T01:56:52;3.30;1.40
2174;DHT22;1093;51.424;11.764;2023-04-10T01:59:21;3.30;1.40
2174;DHT22;1093;51.424;11.764;2023-04-10T02:01:55;3.30;1.40
2174;DHT22;1093;51.424;11.764;2023-04-10T02:04:21;3.30;1.40
2174;DHT22;1093;51.424;11.764;2023-04-10T02:06:53;3.20;1.40
2174;DHT22;1093;51.424;11.764;2023-04-10T02:09:24;3.20;1.40
2174;DHT22;1093;51.424;11.764;2023-04-10T02:11:57;3.20;1.40
2174;DHT22;1093;51.424;11.764;2023-04-10T02:14:26;3.20;1.40
2174;DHT22;1093;51.424;11.764;2023-04-10T02:16:56;3.20;1.40
2174;DHT22;1093;51.424;11.764;2023-04-10T02:19:24;3.30;1.40
2174;DHT22;1093;51.424;11.764;2023-04-10T02:21:51;3.30;1.40
2174;DHT22;1093;51.424;11.764;2023-04-10T02:24:19;3.20;1.40
2174;DHT22;1093;51.424;11.764;2023-04-10T02:26:47;3.20;1.40
2174;DHT22;1093;51.424;11.764;2023-04-10T02:29:14;3.20;1.40
2174;DHT22;1093;51.424;11.764;2023-04-10T02:31:41;3.10;1.40
2174;DHT22;1093;51.424;11.764;2023-04-10T02:34:10;3.10;1.40
2174;DHT22;1093;51.424;11.764;2023-04-10T02:36:37;3.00;1.40
2174;DHT22;1093;51.424;11.764;2023-04-10T02:39:04;3.00;1.40
2174;DHT22;1093;51.424;11.764;2023-04-10T02:41:32;3.00;1.40
2174;DHT22;1093;51.424;11.764;2023-04-10T02:43:59;3.00;1.40
2174;DHT22;1093;51.424;11.764;2023-04-10T02:46:26;3.00;1.40
2174;DHT22;1093;51.424;11.764;2023-04-10T02:48:53;2.90;1.40
2174;DHT22;1093;51.424;11.764;2023-04-10T02:51:21;2.90;1.40
2174;DHT22;1093;51.424;11.764;2023-04-10T02:53:47;2.80;1.40
2174;DHT22;1093;51.424;11.764;2023-04-10T02:56:15;2.80;1.40
2174;DHT22;1093;51.424;11.764;2023-04-10T02:58:42;2.80;1.40
2174;DHT22;1093;51.424;11.764;2023-04-10T03:01:10;2.70;1.40
2174;DHT22;1093;51.424;11.764;2023-04-10T03:03:37;2.70;1.40
2174;DHT22;1093;51.424;11.764;2023-04-10T03:06:04;2.70;1.40
2174;DHT22;1093;51.424;11.764;2023-04-10T03:08:33;2.70;1.40
2174;DHT22;1093;51.424;11.764;2023-04-10T03:10:59;2.70;1.40
2174;DHT22;1093;51.424;11.764;2023-04-10T03:13:26;2.60;1.40
2174;DHT22;1093;51.424;11.764;2023-04-10T03:15:53;2.60;1.40
2174;DHT22;1093;51.424;11.764;2023-04-10T03:18:21;2.60;1.40
2174;DHT22;1093;51.424;11.764;2023-04-10T03:20:47;2.60;1.40
2174;DHT22;1093;51.424;11.764;2023-04-10T03:23:14;2.60;1.40
2174;DHT22;1093;51.424;11.764;2023-04-10T03:25:42;2.60;1.40
2174;DHT22;1093;51.424;11.764;2023-04-10T03:28:09;2.70;1.40
2174;DHT22;1093;51.424;11.764;2023-04-10T03:30:36;2.60;1.40
2174;DHT22;1093;51.424;11.764;2023-04-10T03:33:03;2.50;1.40
2174;DHT22;1093;51.424;11.764;2023-04-10T03:35:29;2.50;1.40
2174;DHT22;1093;51.424;11.764;2023-04-10T03:37:56;2.40;1.40
2174;DHT22;1093;51.424;11.764;2023-04-10T03:40:23;2.40;1.40
2174;DHT22;1093;51.424;11.764;2023-04-10T03:42:51;2.40;1.40
2174;DHT22;1093;51.424;11.764;2023-04-10T03:45:18;2.40;1.40
2174;DHT22;1093;51.424;11.764;2023-04-10T03:47:44;2.40;1.40
2174;DHT22;1093;51.424;11.764;2023-04-10T03:50:11;2.40;1.40
2174;DHT22;1093;51.424;11.764;2023-04-10T03:52:39;2.30;1.40
2174;DHT22;1093;51.424;11.764;2023-04-10T03:55:06;2.40;1.40
2174;DHT22;1093;51.424;11.764;2023-04-10T03:57:33;2.40;1.40
2174;DHT22;1093;51.424;11.764;2023-04-10T04:00:01;2.40;1.40
2174;DHT22;1093;51.424;11.764;2023-04-10T04:02:28;2.40;1.40
2174;DHT22;1093;51.424;11.764;2023-04-10T04:04:55;2.40;1.40
2174;DHT22;1093;51.424;11.764;2023-04-10T04:07:22;2.50;1.40
2174;DHT22;1093;51.424;11.764;2023-04-10T04:09:48;2.50;1.40
2174;DHT22;1093;51.424;11.764;2023-04-10T04:12:15;2.50;1.40
2174;DHT22;1093;51.424;11.764;2023-04-10T04:14:42;2.40;1.40
2174;DHT22;1093;51.424;11.764;2023-04-10T04:17:11;2.40;1.40
2174;DHT22;1093;51.424;11.764;2023-04-10T04:19:37;2.40;1.40
2174;DHT22;1093;51.424;11.764;2023-04-10T04:22:04;2.30;1.40
2174;DHT22;1093;51.424;11.764;2023-04-10T04:24:31;2.30;1.40
2174;DHT22;1093;51.424;11.764;2023-04-10T04:26:57;2.20;1.40
2174;DHT22;1093;51.424;11.764;2023-04-10T04:29:25;2.20;1.40
2174;DHT22;1093;51.424;11.764;2023-04-10T04:31:52;2.20;1.40
2174;DHT22;1093;51.424;11.764;2023-04-10T04:34:20;2.30;1.40
2174;DHT22;1093;51.424;11.764;2023-04-10T04:36:47;2.10;1.40
2174;DHT22;1093;51.424;11.764;2023-04-10T04:39:13;2.10;1.40
2174;DHT22;1093;51.424;11.764;2023-04-10T04:41:40;2.10;1.40
2174;DHT22;1093;51.424;11.764;2023-04-10T04:44:07;2.00;1.40
2174;DHT22;1093;51.424;11.764;2023-04-10T04:46:33;2.00;1.40
2174;DHT22;1093;51.424;11.764;2023-04-10T04:49:00;1.90;1.40
2174;DHT22;1093;51.424;11.764;2023-04-10T04:51:28;1.90;1.40
2174;DHT22;1093;51.424;11.764;2023-04-10T04:53:55;1.90;1.40
2174;DHT22;1093;51.424;11.764;2023-04-10T04:56:22;1.90;1.40
2174;DHT22;1093;51.424;11.764;2023-04-10T04:58:48;1.80;1.40
2174;DHT22;1093;51.424;11.764;2023-04-10T05:01:15;1.90;1.40
2174;DHT22;1093;51.424;11.764;2023-04-10T05:03:41;1.90;1.40
2174;DHT22;1093;51.424;11.764;2023-04-10T05:06:08;1.90;1.40
2174;DHT22;1093;51.424;11.764;2023-04-10T05:08:36;1.90;1.40
2174;DHT22;1093;51.424;11.764;2023-04-10T05:11:04;1.90;1.40
2174;DHT22;1093;51.424;11.764;2023-04-10T05:13:31;1.90;1.40
2174;DHT22;1093;51.424;11.764;2023-04-10T05:15:57;1.90;1.40
2174;DHT22;1093;51.424;11.764;2023-04-10T05:18:24;1.90;1.40
2174;DHT22;1093;51.424;11.764;2023-04-10T05:20:51;1.80;1.40
2174;DHT22;1093;51.424;11.764;2023-04-10T05:23:18;1.90;1.40
2174;DHT22;1093;51.424;11.764;2023-04-10T05:25:46;1.80;1.40
2174;DHT22;1093;51.424;11.764;2023-04-10T05:28:12;1.80;1.40
2174;DHT22;1093;51.424;11.764;2023-04-10T05:30:39;1.80;1.40
2174;DHT22;1093;51.424;11.764;2023-04-10T05:33:06;1.80;1.40
2174;DHT22;1093;51.424;11.764;2023-04-10T05:35:33;1.80;1.40
2174;DHT22;1093;51.424;11.764;2023-04-10T05:38:00;1.80;1.40
2174;DHT22;1093;51.424;11.764;2023-04-10T05:40:27;1.80;1.40
2174;DHT22;1093;51.424;11.764;2023-04-10T05:42:55;1.80;1.40
2174;DHT22;1093;51.424;11.764;2023-04-10T05:45:22;1.80;1.40
2174;DHT22;1093;51.424;11.764;2023-04-10T05:47:49;1.80;1.40
2174;DHT22;1093;51.424;11.764;2023-04-10T05:50:16;1.90;1.40
2174;DHT22;1093;51.424;11.764;2023-04-10T05:52:43;1.90;1.40
2174;DHT22;1093;51.424;11.764;2023-04-10T05:55:11;1.90;1.40
2174;DHT22;1093;51.424;11.764;2023-04-10T05:57:38;1.90;1.40
2174;DHT22;1093;51.424;11.764;2023-04-10T06:00:07;1.90;1.40
2174;DHT22;1093;51.424;11.764;2023-04-10T06:02:34;2.00;1.40
2174;DHT22;1093;51.424;11.764;2023-04-10T06:05:01;2.00;1.40
2174;DHT22;1093;51.424;11.764;2023-04-10T06:07:28;2.10;1.40
2174;DHT22;1093;51.424;11.764;2023-04-10T06:09:56;2.10;1.40
2174;DHT22;1093;51.424;11.764;2023-04-10T06:12:23;2.20;1.40
2174;DHT22;1093;51.424;11.764;2023-04-10T06:14:50;2.30;1.40
2174;DHT22;1093;51.424;11.764;2023-04-10T06:17:19;2.50;1.40
2174;DHT22;1093;51.424;11.764;2023-04-10T06:19:46;2.60;1.40
2174;DHT22;1093;51.424;11.764;2023-04-10T06:22:13;2.70;1.40
2174;DHT22;1093;51.424;11.764;2023-04-10T06:24:40;2.80;1.40
2174;DHT22;1093;51.424;11.764;2023-04-10T06:27:06;2.90;1.40
2174;DHT22;1093;51.424;11.764;2023-04-10T06:29:34;3.10;1.40
2174;DHT22;1093;51.424;11.764;2023-04-10T06:32:01;3.30;1.40
2174;DHT22;1093;51.424;11.764;2023-04-10T06:34:29;3.40;1.40
2174;DHT22;1093;51.424;11.764;2023-04-10T06:36:55;3.60;1.40
2174;DHT22;1093;51.424;11.764;2023-04-10T06:39:22;3.70;1.40
2174;DHT22;1093;51.424;11.764;2023-04-10T06:41:49;3.80;1.40
2174;DHT22;1093;51.424;11.764;2023-04-10T06:44:16;4.00;1.40
2174;DHT22;1093;51.424;11.764;2023-04-10T06:46:43;4.10;1.40
2174;DHT22;1093;51.424;11.764;2023-04-10T06:49:10;4.30;1.40
2174;DHT22;1093;51.424;11.764;2023-04-10T06:51:38;4.40;1.40
2174;DHT22;1093;51.424;11.764;2023-04-10T06:54:05;4.60;1.40
2174;DHT22;1093;51.424;11.764;2023-04-10T06:56:32;4.80;1.40
2174;DHT22;1093;51.424;11.764;2023-04-10T06:58:59;5.00;1.40
2174;DHT22;1093;51.424;11.764;2023-04-10T07:01:26;5.20;1.40
2174;DHT22;1093;51.424;11.764;2023-04-10T07:03:52;5.40;1.40
2174;DHT22;1093;51.424;11.764;2023-04-10T07:06:20;5.60;1.40
2174;DHT22;1093;51.424;11.764;2023-04-10T07:08:49;5.80;1.40
2174;DHT22;1093;51.424;11.764;2023-04-10T07:11:16;6.00;1.40
2174;DHT22;1093;51.424;11.764;2023-04-10T07:13:43;6.20;1.40
2174;DHT22;1093;51.424;11.764;2023-04-10T07:16:09;6.40;1.40
2174;DHT22;1093;51.424;11.764;2023-04-10T07:18:36;6.60;1.40
2174;DHT22;1093;51.424;11.764;2023-04-10T07:21:09;6.80;1.40
2174;DHT22;1093;51.424;11.764;2023-04-10T07:23:36;6.90;1.40
2174;DHT22;1093;51.424;11.764;2023-04-10T07:26:05;7.10;1.40
2174;DHT22;1093;51.424;11.764;2023-04-10T07:28:32;7.30;1.40
2174;DHT22;1093;51.424;11.764;2023-04-10T07:30:58;7.60;1.40
2174;DHT22;1093;51.424;11.764;2023-04-10T07:33:25;7.70;1.40
2174;DHT22;1093;51.424;11.764;2023-04-10T07:35:52;8.00;1.40
2174;DHT22;1093;51.424;11.764;2023-04-10T07:38:18;8.20;1.40
2174;DHT22;1093;51.424;11.764;2023-04-10T07:40:45;8.50;1.40
2174;DHT22;1093;51.424;11.764;2023-04-10T07:43:14;8.60;1.40
2174;DHT22;1093;51.424;11.764;2023-04-10T07:45:40;8.70;1.40
2174;DHT22;1093;51.424;11.764;2023-04-10T07:48:07;8.90;1.40
2174;DHT22;1093;51.424;11.764;2023-04-10T07:50:34;8.90;1.40
2174;DHT22;1093;51.424;11.764;2023-04-10T07:53:01;9.20;1.40
2174;DHT22;1093;51.424;11.764;2023-04-10T07:55:36;9.40;1.40
2174;DHT22;1093;51.424;11.764;2023-04-10T07:58:03;9.50;1.40
2174;DHT22;1093;51.424;11.764;2023-04-10T08:00:32;9.70;1.40
2174;DHT22;1093;51.424;11.764;2023-04-10T08:02:59;9.80;1.40
2174;DHT22;1093;51.424;11.764;2023-04-10T08:05:25;10.00;1.40
2174;DHT22;1093;51.424;11.764;2023-04-10T08:07:52;10.20;1.40
2174;DHT22;1093;51.424;11.764;2023-04-10T08:10:19;10.30;1.40
2174;DHT22;1093;51.424;11.764;2023-04-10T08:12:46;10.50;1.40
2174;DHT22;1093;51.424;11.764;2023-04-10T08:15:13;10.60;1.40
2174;DHT22;1093;51.424;11.764;2023-04-10T08:17:41;10.70;1.40
2174;DHT22;1093;51.424;11.764;2023-04-10T08:20:09;10.90;1.40
2174;DHT22;1093;51.424;11.764;2023-04-10T08:22:36;11.10;1.40
2174;DHT22;1093;51.424;11.764;2023-04-10T08:25:04;11.30;1.40
2174;DHT22;1093;51.424;11.764;2023-04-10T08:27:30;11.50;1.40
2174;DHT22;1093;51.424;11.764;2023-04-10T08:29:57;11.50;1.40
2174;DHT22;1093;51.424;11.764;2023-04-10T08:32:24;11.70;1.40
2174;DHT22;1093;51.424;11.764;2023-04-10T08:34:53;12.00;1.40
2174;DHT22;1093;51.424;11.764;2023-04-10T08:37:20;12.30;1.40
2174;DHT22;1093;51.424;11.764;2023-04-10T08:39:47;12.50;1.40
2174;DHT22;1093;51.424;11.764;2023-04-10T08:42:13;12.60;1.40
2174;DHT22;1093;51.424;11.764;2023-04-10T08:44:40;12.70;1.40
2174;DHT22;1093;51.424;11.764;2023-04-10T08:47:07;12.90;1.40
2174;DHT22;1093;51.424;11.764;2023-04-10T08:49:40;13.10;1.40
2174;DHT22;1093;51.424;11.764;2023-04-10T08:52:19;13.20;1.40
2174;DHT22;1093;51.424;11.764;2023-04-10T08:54:49;13.40;1.40
2174;DHT22;1093;51.424;11.764;2023-04-10T08:57:16;13.60;1.40
2174;DHT22;1093;51.424;11.764;2023-04-10T08:59:45;13.60;1.40
2174;DHT22;1093;51.424;11.764;2023-04-10T09:02:12;13.80;1.40
2174;DHT22;1093;51.424;11.764;2023-04-10T09:04:42;14.00;1.40
2174;DHT22;1093;51.424;11.764;2023-04-10T09:07:10;14.10;1.40
2174;DHT22;1093;51.424;11.764;2023-04-10T09:09:39;14.20;1.40
2174;DHT22;1093;51.424;11.764;2023-04-10T09:12:05;14.30;1.40
2174;DHT22;1093;51.424;11.764;2023-04-10T09:14:34;14.40;1.40
2174;DHT22;1093;51.424;11.764;2023-04-10T09:17:15;14.40;1.40
2174;DHT22;1093;51.424;11.764;2023-04-10T09:19:43;14.50;1.40
2174;DHT22;1093;51.424;11.764;2023-04-10T09:22:10;14.70;1.40
2174;DHT22;1093;51.424;11.764;2023-04-10T09:24:40;14.80;1.40
2174;DHT22;1093;51.424;11.764;2023-04-10T09:27:07;14.80;1.40
2174;DHT22;1093;51.424;11.764;2023-04-10T09:29:40;14.90;1.40
2174;DHT22;1093;51.424;11.764;2023-04-10T09:32:07;15.00;1.40
2174;DHT22;1093;51.424;11.764;2023-04-10T09:34:36;15.00;1.40
2174;DHT22;1093;51.424;11.764;2023-04-10T09:37:16;15.10;1.40
2174;DHT22;1093;51.424;11.764;2023-04-10T09:39:46;15.10;1.40
2174;DHT22;1093;51.424;11.764;2023-04-10T09:42:13;15.20;1.40
2174;DHT22;1093;51.424;11.764;2023-04-10T09:44:40;15.40;1.40
2174;DHT22;1093;51.424;11.764;2023-04-10T09:47:15;15.50;1.40
2174;DHT22;1093;51.424;11.764;2023-04-10T09:49:46;15.40;1.40
2174;DHT22;1093;51.424;11.764;2023-04-10T09:52:18;15.40;1.40
2174;DHT22;1093;51.424;11.764;2023-04-10T09:54:46;15.40;1.40
2174;DHT22;1093;51.424;11.764;2023-04-10T09:57:16;15.40;1.40
2174;DHT22;1093;51.424;11.764;2023-04-10T09:59:48;15.40;1.40
2174;DHT22;1093;51.424;11.764;2023-04-10T10:02:17;15.50;1.40
2174;DHT22;1093;51.424;11.764;2023-04-10T10:04:45;15.50;1.40
2174;DHT22;1093;51.424;11.764;2023-04-10T10:07:14;15.50;1.40
2174;DHT22;1093;51.424;11.764;2023-04-10T10:09:42;15.60;1.40
2174;DHT22;1093;51.424;11.764;2023-04-10T10:12:12;15.70;1.40
2174;DHT22;1093;51.424;11.764;2023-04-10T10:14:52;15.70;1.40
2174;DHT22;1093;51.424;11.764;2023-04-10T10:17:26;15.70;1.40
2174;DHT22;1093;51.424;11.764;2023-04-10T10:19:59;15.70;1.40
2174;DHT22;1093;51.424;11.764;2023-04-10T10:22:28;15.70;1.40
2174;DHT22;1093;51.424;11.764;2023-04-10T10:24:55;15.80;1.40
2174;DHT22;1093;51.424;11.764;2023-04-10T10:27:26;16.00;1.40
2174;DHT22;1093;51.424;11.764;2023-04-10T10:29:54;16.10;1.40
2174;DHT22;1093;51.424;11.764;2023-04-10T10:32:22;16.00;1.40
2174;DHT22;1093;51.424;11.764;2023-04-10T10:34:51;16.20;1.40
2174;DHT22;1093;51.424;11.764;2023-04-10T10:37:18;16.40;1.40
2174;DHT22;1093;51.424;11.764;2023-04-10T10:39:52;16.50;1.40
2174;DHT22;1093;51.424;11.764;2023-04-10T10:42:29;16.50;1.40
2174;DHT22;1093;51.424;11.764;2023-04-10T10:45:05;16.50;1.40
2174;DHT22;1093;51.424;11.764;2023-04-10T10:47:39;16.50;1.40
2174;DHT22;1093;51.424;11.764;2023-04-10T10:50:06;16.60;1.40
2174;DHT22;1093;51.424;11.764;2023-04-10T10:52:41;16.60;1.40
2174;DHT22;1093;51.424;11.764;2023-04-10T10:55:29;16.60;1.40
2174;DHT22;1093;51.424;11.764;2023-04-10T10:57:59;16.50;1.40
2174;DHT22;1093;51.424;11.764;2023-04-10T11:03:27;16.60;1.40
2174;DHT22;1093;51.424;11.764;2023-04-10T11:05:55;16.50;1.40
2174;DHT22;1093;51.424;11.764;2023-04-10T11:08:35;16.50;1.40
2174;DHT22;1093;51.424;11.764;2023-04-10T11:11:05;16.50;1.40
2174;DHT22;1093;51.424;11.764;2023-04-10T11:13:34;16.50;1.40
2174;DHT22;1093;51.424;11.764;2023-04-10T11:16:03;16.50;1.40
2174;DHT22;1093;51.424;11.764;2023-04-10T11:19:00;16.60;1.40
2174;DHT22;1093;51.424;11.764;2023-04-10T11:21:27;16.60;1.40
2174;DHT22;1093;51.424;11.764;2023-04-10T11:24:02;16.70;1.40
2174;DHT22;1093;51.424;11.764;2023-04-10T11:26:36;16.70;1.40
2174;DHT22;1093;51.424;11.764;2023-04-10T11:29:31;16.80;1.40
2174;DHT22;1093;51.424;11.764;2023-04-10T11:31:59;16.60;1.40
2174;DHT22;1093;51.424;11.764;2023-04-10T11:34:26;16.70;1.40
2174;DHT22;1093;51.424;11.764;2023-04-10T11:36:55;16.80;1.40
2174;DHT22;1093;51.424;11.764;2023-04-10T11:39:22;16.80;1.40
2174;DHT22;1093;51.424;11.764;2023-04-10T11:41:51;16.80;1.40
2174;DHT22;1093;51.424;11.764;2023-04-10T11:44:28;16.80;1.40
2174;DHT22;1093;51.424;11.764;2023-04-10T11:46:56;16.70;1.40
2174;DHT22;1093;51.424;11.764;2023-04-10T11:49:25;16.70;1.40
2174;DHT22;1093;51.424;11.764;2023-04-10T11:51:52;16.90;1.40
2174;DHT22;1093;51.424;11.764;2023-04-10T11:54:20;17.00;1.40
2174;DHT22;1093;51.424;11.764;2023-04-10T11:56:56;17.00;1.40
2174;DHT22;1093;51.424;11.764;2023-04-10T11:59:25;16.90;1.40
2174;DHT22;1093;51.424;11.764;2023-04-10T12:01:53;16.80;1.40
2174;DHT22;1093;51.424;11.764;2023-04-10T12:04:21;16.90;1.40
2174;DHT22;1093;51.424;11.764;2023-04-10T12:06:49;17.00;1.40
2174;DHT22;1093;51.424;11.764;2023-04-10T12:09:17;17.10;1.40
2174;DHT22;1093;51.424;11.764;2023-04-10T12:11:49;17.10;1.40
2174;DHT22;1093;51.424;11.764;2023-04-10T12:14:17;17.00;1.40
2174;DHT22;1093;51.424;11.764;2023-04-10T12:16:46;17.00;1.40
2174;DHT22;1093;51.424;11.764;2023-04-10T12:19:13;17.00;1.40
2174;DHT22;1093;51.424;11.764;2023-04-10T12:21:41;17.00;1.40
2174;DHT22;1093;51.424;11.764;2023-04-10T12:24:08;17.00;1.40
2174;DHT22;1093;51.424;11.764;2023-04-10T12:26:35;17.00;1.40
2174;DHT22;1093;51.424;11.764;2023-04-10T12:29:03;16.90;1.40
2174;DHT22;1093;51.424;11.764;2023-04-10T12:31:33;17.00;1.40
2174;DHT22;1093;51.424;11.764;2023-04-10T12:34:03;16.90;1.40
2174;DHT22;1093;51.424;11.764;2023-04-10T12:36:31;16.80;1.40
2174;DHT22;1093;51.424;11.764;2023-04-10T12:39:01;16.90;1.40
2174;DHT22;1093;51.424;11.764;2023-04-10T12:41:30;16.90;1.40
2174;DHT22;1093;51.424;11.764;2023-04-10T12:44:08;16.80;1.40
2174;DHT22;1093;51.424;11.764;2023-04-10T12:46:35;17.00;1.40
2174;DHT22;1093;51.424;11.764;2023-04-10T12:49:11;17.10;1.40
2174;DHT22;1093;51.424;11.764;2023-04-10T12:51:43;17.10;1.40
2174;DHT22;1093;51.424;11.764;2023-04-10T12:54:10;17.20;1.40
2174;DHT22;1093;51.424;11.764;2023-04-10T12:56:40;17.30;1.40
2174;DHT22;1093;51.424;11.764;2023-04-10T12:59:07;17.30;1.40
2174;DHT22;1093;51.424;11.764;2023-04-10T13:01:36;17.20;1.40
2174;DHT22;1093;51.424;11.764;2023-04-10T13:04:03;17.30;1.40
2174;DHT22;1093;51.424;11.764;2023-04-10T13:06:31;17.40;1.40
2174;DHT22;1093;51.424;11.764;2023-04-10T13:08:58;17.40;1.40
2174;DHT22;1093;51.424;11.764;2023-04-10T13:11:24;17.40;1.40
2174;DHT22;1093;51.424;11.764;2023-04-10T13:13:51;17.50;1.40
2174;DHT22;1093;51.424;11.764;2023-04-10T13:16:18;17.40;1.40
2174;DHT22;1093;51.424;11.764;2023-04-10T13:18:45;17.40;1.40
2174;DHT22;1093;51.424;11.764;2023-04-10T13:21:11;17.40;1.40
2174;DHT22;1093;51.424;11.764;2023-04-10T13:27:01;17.40;1.40
2174;DHT22;1093;51.424;11.764;2023-04-10T13:29:28;17.40;1.40
2174;DHT22;1093;51.424;11.764;2023-04-10T13:31:54;17.40;1.40
2174;DHT22;1093;51.424;11.764;2023-04-10T13:34:21;17.50;1.40
2174;DHT22;1093;51.424;11.764;2023-04-10T13:36:48;17.40;1.40
2174;DHT22;1093;51.424;11.764;2023-04-10T13:39:15;17.30;1.40
2174;DHT22;1093;51.424;11.764;2023-04-10T13:41:43;17.30;1.40
2174;DHT22;1093;51.424;11.764;2023-04-10T13:44:11;17.30;1.40
2174;DHT22;1093;51.424;11.764;2023-04-10T13:46:37;17.40;1.40
2174;DHT22;1093;51.424;11.764;2023-04-10T13:49:05;17.30;1.40
2174;DHT22;1093;51.424;11.764;2023-04-10T13:51:31;17.40;1.40
2174;DHT22;1093;51.424;11.764;2023-04-10T13:53:58;17.40;1.40
2174;DHT22;1093;51.424;11.764;2023-04-10T13:56:27;17.50;1.40
2174;DHT22;1093;51.424;11.764;2023-04-10T13:58:54;17.50;1.40
2174;DHT22;1093;51.424;11.764;2023-04-10T14:01:23;17.60;1.40
2174;DHT22;1093;51.424;11.764;2023-04-10T14:03:50;17.60;1.40
2174;DHT22;1093;51.424;11.764;2023-04-10T14:06:16;17.50;1.40
2174;DHT22;1093;51.424;11.764;2023-04-10T14:08:43;17.50;1.40
2174;DHT22;1093;51.424;11.764;2023-04-10T14:11:10;17.60;1.40
2174;DHT22;1093;51.424;11.764;2023-04-10T14:13:37;17.70;1.40
2174;DHT22;1093;51.424;11.764;2023-04-10T14:16:04;17.70;1.40
2174;DHT22;1093;51.424;11.764;2023-04-10T14:18:32;17.60;1.40
2174;DHT22;1093;51.424;11.764;2023-04-10T14:20:59;17.60;1.40
2174;DHT22;1093;51.424;11.764;2023-04-10T14:23:25;17.70;1.40
2174;DHT22;1093;51.424;11.764;2023-04-10T14:25:52;17.80;1.40
2174;DHT22;1093;51.424;11.764;2023-04-10T14:28:19;17.70;1.40
2174;DHT22;1093;51.424;11.764;2023-04-10T14:30:47;17.70;1.40
2174;DHT22;1093;51.424;11.764;2023-04-10T14:33:14;17.70;1.40
2174;DHT22;1093;51.424;11.764;2023-04-10T14:35:44;17.80;1.40
2174;DHT22;1093;51.424;11.764;2023-04-10T14:38:11;17.90;1.40
2174;DHT22;1093;51.424;11.764;2023-04-10T14:40:38;17.80;1.40
2174;DHT22;1093;51.424;11.764;2023-04-10T14:43:05;17.90;1.40
2174;DHT22;1093;51.424;11.764;2023-04-10T14:45:32;17.90;1.40
2174;DHT22;1093;51.424;11.764;2023-04-10T14:47:58;17.90;1.40
2174;DHT22;1093;51.424;11.764;2023-04-10T14:50:26;17.90;1.40
2174;DHT22;1093;51.424;11.764;2023-04-10T14:52:55;18.00;1.40
2174;DHT22;1093;51.424;11.764;2023-04-10T14:55:24;18.00;1.40
2174;DHT22;1093;51.424;11.764;2023-04-10T14:57:50;18.00;1.40
2174;DHT22;1093;51.424;11.764;2023-04-10T15:00:18;18.10;1.40
2174;DHT22;1093;51.424;11.764;2023-04-10T15:02:44;18.00;1.40
2174;DHT22;1093;51.424;11.764;2023-04-10T15:05:11;18.00;1.40
2174;DHT22;1093;51.424;11.764;2023-04-10T15:07:38;17.90;1.40
2174;DHT22;1093;51.424;11.764;2023-04-10T15:10:08;17.90;1.40
2174;DHT22;1093;51.424;11.764;2023-04-10T15:12:36;17.90;1.40
2174;DHT22;1093;51.424;11.764;2023-04-10T15:15:03;18.00;1.40
2174;DHT22;1093;51.424;11.764;2023-04-10T15:17:30;18.00;1.40
2174;DHT22;1093;51.424;11.764;2023-04-10T15:19:57;18.00;1.40
2174;DHT22;1093;51.424;11.764;2023-04-10T15:22:24;18.00;1.40
2174;DHT22;1093;51.424;11.764;2023-04-10T15:24:52;18.00;1.40
2174;DHT22;1093;51.424;11.764;2023-04-10T15:27:20;18.00;1.40
2174;DHT22;1093;51.424;11.764;2023-04-10T15:29:47;18.00;1.40
2174;DHT22;1093;51.424;11.764;2023-04-10T15:32:14;18.00;1.40
2174;DHT22;1093;51.424;11.764;2023-04-10T15:34:41;18.00;1.40
2174;DHT22;1093;51.424;11.764;2023-04-10T15:37:08;17.70;1.40
2174;DHT22;1093;51.424;11.764;2023-04-10T15:39:36;17.70;1.40
2174;DHT22;1093;51.424;11.764;2023-04-10T15:42:02;17.70;1.40
2174;DHT22;1093;51.424;11.764;2023-04-10T15:44:31;17.70;1.40
2174;DHT22;1093;51.424;11.764;2023-04-10T15:46:58;17.70;1.40
2174;DHT22;1093;51.424;11.764;2023-04-10T15:49:24;17.70;1.40
2174;DHT22;1093;51.424;11.764;2023-04-10T15:51:51;17.70;1.40
2174;DHT22;1093;51.424;11.764;2023-04-10T15:54:18;17.70;1.40
2174;DHT22;1093;51.424;11.764;2023-04-10T15:56:45;17.70;1.40
2174;DHT22;1093;51.424;11.764;2023-04-10T15:59:12;17.60;1.40
2174;DHT22;1093;51.424;11.764;2023-04-10T16:01:40;17.60;1.40
2174;DHT22;1093;51.424;11.764;2023-04-10T16:04:07;17.50;1.40
2174;DHT22;1093;51.424;11.764;2023-04-10T16:06:34;17.60;1.40
2174;DHT22;1093;51.424;11.764;2023-04-10T16:09:01;17.50;1.40
2174;DHT22;1093;51.424;11.764;2023-04-10T16:11:28;17.50;1.40
2174;DHT22;1093;51.424;11.764;2023-04-10T16:13:55;17.40;1.40
2174;DHT22;1093;51.424;11.764;2023-04-10T16:16:22;17.40;1.40
2174;DHT22;1093;51.424;11.764;2023-04-10T16:18:51;17.50;1.40
2174;DHT22;1093;51.424;11.764;2023-04-10T16:21:18;17.40;1.40
2174;DHT22;1093;51.424;11.764;2023-04-10T16:23:46;17.30;1.40